Terminal Aerodrome Forecast
Issued by NWS

Home | Current Version | Previous Version | Text Only | Print | Product List | Glossary On
Versions: 1 2 3 4 5 6 7 8 9 10 11 12 13 14 15 16 17 18 19 20 21 22 23 24 25 26 27 28 29 30 31
000
FTUS46 KMTR 221508 AAA
TAFSFO
TAF AMD
KSFO 221508Z 2215/2318 27006KT P6SM FEW010 SCT015
      TEMPO 2215/2216 BKN014
     FM221600 33006KT P6SM FEW012 SCT120
     FM222000 30012KT P6SM FEW100
     FM222200 29017KT P6SM FEW100
     FM230500 29010KT P6SM SKC
     FM230800 29008KT P6SM BKN014
     FM231600 28004KT P6SM FEW012=

USA.gov is the U.S. government's official web portal to all federal, state and local government web resources and services.